Home > Products > Valid Products > TAF

000
FTUS46 KOTX 260540 CCA
TAFEAT
TAF COR
KEAT 260540Z 2606/2706 30003KT 2SM -RA BR SCT002 OVC005
      TEMPO 2606/2609 1SM -RA BR
     FM260900 VRB02KT 1SM BR OVC002
     FM261200 30002KT 3SM BR OVC001
     FM262000 28004KT P6SM OVC018=



000
FTUS46 KOTX 260539
TAFGEG
TAF
KGEG 260539Z 2606/2706 02005KT 3SM -RASN BR OVC002
     FM261000 13007KT 1SM -RA BR OVC002
     FM261200 19009KT 1SM BR VCSH BKN002 OVC010
     FM261400 20007KT 1/2SM FG OVC004
     FM261800 20012KT 5SM BR SCT005 BKN006 OVC015=



000
FTUS46 KOTX 260539
TAFPUW
TAF
KPUW 260539Z 2606/2706 10006KT 2SM -RA BR OVC012
     FM261100 24010KT 2SM BR OVC005
     FM261800 20012G19KT P6SM SCT018 OVC050=



000
FTUS46 KOTX 260539
TAFCOE
TAF
KCOE 260539Z 2606/2706 07003KT 6SM -RASN BR BKN030 OVC045
     FM260700 05004KT 4SM -RASN SCT005 BKN013 OVC030
     FM261200 23006KT 2SM -RA BR BKN006 OVC013
     FM261800 21007KT 3SM BR OVC012
      AMD LTD TO CLD AND VIS=



000
FTUS46 KOTX 260539
TAFLWS
TAF
KLWS 260539Z 2606/2706 10005KT P6SM VCSH OVC012
     FM260700 24004KT P6SM OVC030
     FM261200 22007KT P6SM BKN018
     FM262000 18008KT P6SM BKN060=



000
FTUS46 KOTX 260539
TAFSFF
TAF
KSFF 260539Z 2606/2706 00000KT 6SM -RA BR OVC016
     FM261200 23004KT 3SM BR VCSH BKN006 OVC014
     FM261400 22004KT 1SM BR OVC009
     FM261800 24006KT 5SM BR OVC015=



000
FTUS46 KOTX 260539
TAFMWH
TAF
KMWH 260539Z 2606/2706 36007KT 3SM BR OVC020
     FM260900 20003KT 2SM BR OVC016
     FM261200 VRB03KT 1SM BR OVC006
     FM261800 22007KT P6SM OVC019=



000
FTUS46 KOTX 260539
TAFEAT
TAF
KEAT 260539Z 2606/2706 30003KT 1SM BR SCT002 OVC005
     FM260900 VRB02KT 1SM BR OVC002
     FM261200 30002KT 3SM BR OVC001
     FM262000 28004KT P6SM OVC018=



000
FTUS46 KOTX 260539
TAFCOE
TAF
KCOE 260539Z 2606/2706 07003KT 6SM -RASN BR BKN030 OVC045
     FM260700 05004KT 4SM -RASN SCT005 BKN013 OVC030
     FM261200 23006KT 2SM -RA BR BKN006 OVC013
     FM261800 21007KT 3SM BR OVC012
      AMD LTD TO CLD AND VIS=



000
FTUS46 KOTX 260539
TAFGEG
TAF
KGEG 260539Z 2606/2706 02005KT 3SM -RASN BR OVC002
     FM261000 13007KT 1SM -RA BR OVC002
     FM261200 19009KT 1SM BR VCSH BKN002 OVC010
     FM261400 20007KT 1/2SM FG OVC004
     FM261800 20012KT 5SM BR SCT005 BKN006 OVC015=



000
FTUS46 KOTX 260539
TAFEAT
TAF
KEAT 260539Z 2606/2706 30003KT 1SM BR SCT002 OVC005
     FM260900 VRB02KT 1SM BR OVC002
     FM261200 30002KT 3SM BR OVC001
     FM262000 28004KT P6SM OVC018=



000
FTUS46 KOTX 260539
TAFPUW
TAF
KPUW 260539Z 2606/2706 10006KT 2SM -RA BR OVC012
     FM261100 24010KT 2SM BR OVC005
     FM261800 20012G19KT P6SM SCT018 OVC050=



000
FTUS46 KOTX 260539
TAFLWS
TAF
KLWS 260539Z 2606/2706 10005KT P6SM VCSH OVC012
     FM260700 24004KT P6SM OVC030
     FM261200 22007KT P6SM BKN018
     FM262000 18008KT P6SM BKN060=



000
FTUS46 KOTX 260539
TAFSFF
TAF
KSFF 260539Z 2606/2706 00000KT 6SM -RA BR OVC016
     FM261200 23004KT 3SM BR VCSH BKN006 OVC014
     FM261400 22004KT 1SM BR OVC009
     FM261800 24006KT 5SM BR OVC015=



000
FTUS46 KOTX 260539
TAFMWH
TAF
KMWH 260539Z 2606/2706 36007KT 3SM BR OVC020
     FM260900 20003KT 2SM BR OVC016
     FM261200 VRB03KT 1SM BR OVC006
     FM261800 22007KT P6SM OVC019=



000
FTUS46 KOTX 260142 AAA
TAFPUW
TAF AMD
KPUW 260142Z 2602/2624 33005KT 4SM -RA BR OVC007
     FM260400 28010KT 2SM -RA BR OVC007
     FM261300 24010KT 2SM BR OVC005
     FM261800 20008KT P6SM OVC018=



000
FTUS46 KOTX 260142 AAA
TAFPUW
TAF AMD
KPUW 260142Z 2602/2624 33005KT 4SM -RA BR OVC007
     FM260400 28010KT 2SM -RA BR OVC007
     FM261300 24010KT 2SM BR OVC005
     FM261800 20008KT P6SM OVC018=



000
FTUS46 KOTX 260141 CCA
TAFGEG
TAF COR
KGEG 260141Z 2602/2624 02005KT 5SM -RA BR BKN005 OVC015
     FM260400 04004KT 5SM -RA BR OVC005
     FM260600 VRB03KT 3SM -RA BR BKN005 OVC012
     FM261200 21012KT 1SM -RA BR BKN003 OVC010
     FM261600 20007KT 1/2SM FG OVC004=



000
FTUS46 KOTX 260141 CCA
TAFGEG
TAF COR
KGEG 260141Z 2602/2624 02005KT 5SM -RA BR BKN005 OVC015
     FM260400 04004KT 5SM -RA BR OVC005
     FM260600 VRB03KT 3SM -RA BR BKN005 OVC012
     FM261200 21012KT 1SM -RA BR BKN003 OVC010
     FM261600 20007KT 1/2SM FG OVC004=



000
FTUS46 KOTX 260140 AAA
TAFGEG
TAF AMD
KGEG 260140Z 2602/2624 02005KT P6SM -RA BKN005 OVC015
     FM260400 04004KT 5SM -RA BR OVC005
     FM260600 VRB03KT 3SM -RA BR BKN005 OVC012
     FM261200 21012KT 1SM -RA BR BKN003 OVC010
     FM261600 20007KT 1/2SM FG OVC004=



000
FTUS46 KOTX 260140 AAA
TAFGEG
TAF AMD
KGEG 260140Z 2602/2624 02005KT P6SM -RA BKN005 OVC015
     FM260400 04004KT 5SM -RA BR OVC005
     FM260600 VRB03KT 3SM -RA BR BKN005 OVC012
     FM261200 21012KT 1SM -RA BR BKN003 OVC010
     FM261600 20007KT 1/2SM FG OVC004=



000
FTUS46 KOTX 252330
TAFMWH
TAF
KMWH 252330Z 2600/2624 36006KT 4SM BR VCSH BKN014 OVC027
     FM260400 21007KT P6SM OVC040
     FM260900 20003KT 4SM BR OVC016
     FM261600 22007KT P6SM OVC019=



000
FTUS46 KOTX 252330
TAFPUW
TAF
KPUW 252330Z 2600/2624 33005KT 4SM -RA BR OVC024
     FM260400 28010KT 2SM -RA BR OVC012
     FM261300 24010KT 2SM BR OVC009
     FM261800 20008KT P6SM OVC018=



000
FTUS46 KOTX 252330
TAFEAT
TAF
KEAT 252330Z 2600/2624 VRB03KT 3SM -RA BR OVC005
      TEMPO 2600/2603 2SM -RA BR OVC002
     FM260600 31004KT 1SM BR OVC004
     FM261200 30002KT 3SM BR OVC001
     FM262000 28004KT P6SM OVC018=



000
FTUS46 KOTX 252330
TAFGEG
TAF
KGEG 252330Z 2600/2624 02005KT P6SM -RA SCT012 BKN018 OVC035
     FM260300 04004KT 5SM -RA BR OVC012
     FM260600 VRB03KT 3SM -RA BR BKN008 OVC012
     FM261200 21012KT 1SM -RA BR BKN003 OVC010
     FM261600 20007KT 1/2SM FG OVC004=



000
FTUS46 KOTX 252330
TAFLWS
TAF
KLWS 252330Z 2600/2624 27005KT P6SM -RA FEW003 OVC035
     FM260700 24004KT P6SM OVC030
     FM261200 22007KT P6SM BKN018
     FM262000 18008KT P6SM BKN060=



000
FTUS46 KOTX 252330
TAFSFF
TAF
KSFF 252330Z 2600/2624 VRB03KT P6SM -RA SCT020 OVC025
     FM260300 VRB03KT 5SM -RA BR BKN011 OVC017
     FM261200 23004KT 3SM -RA BR BKN006 OVC014
     FM261600 22004KT 1SM BR OVC009=



000
FTUS46 KOTX 252330
TAFCOE
TAF
KCOE 252330Z 2600/2624 VRB03KT P6SM -RA BKN027 OVC030
     FM260400 34004KT 2SM -RA BR BKN009 OVC015
     FM261200 23006KT 2SM -RA BR BKN006 OVC013
     FM261800 21007KT 3SM BR OVC012
      AMD LTD TO CLD AND VIS=



000
FTUS46 KOTX 252330
TAFPUW
TAF
KPUW 252330Z 2600/2624 33005KT 4SM -RA BR OVC024
     FM260400 28010KT 2SM -RA BR OVC012
     FM261300 24010KT 2SM BR OVC009
     FM261800 20008KT P6SM OVC018=



000
FTUS46 KOTX 252330
TAFMWH
TAF
KMWH 252330Z 2600/2624 36006KT 4SM BR VCSH BKN014 OVC027
     FM260400 21007KT P6SM OVC040
     FM260900 20003KT 4SM BR OVC016
     FM261600 22007KT P6SM OVC019=



000
FTUS46 KOTX 252330
TAFLWS
TAF
KLWS 252330Z 2600/2624 27005KT P6SM -RA FEW003 OVC035
     FM260700 24004KT P6SM OVC030
     FM261200 22007KT P6SM BKN018
     FM262000 18008KT P6SM BKN060=



000
FTUS46 KOTX 252330
TAFSFF
TAF
KSFF 252330Z 2600/2624 VRB03KT P6SM -RA SCT020 OVC025
     FM260300 VRB03KT 5SM -RA BR BKN011 OVC017
     FM261200 23004KT 3SM -RA BR BKN006 OVC014
     FM261600 22004KT 1SM BR OVC009=



000
FTUS46 KOTX 252330
TAFGEG
TAF
KGEG 252330Z 2600/2624 02005KT P6SM -RA SCT012 BKN018 OVC035
     FM260300 04004KT 5SM -RA BR OVC012
     FM260600 VRB03KT 3SM -RA BR BKN008 OVC012
     FM261200 21012KT 1SM -RA BR BKN003 OVC010
     FM261600 20007KT 1/2SM FG OVC004=



000
FTUS46 KOTX 252330
TAFCOE
TAF
KCOE 252330Z 2600/2624 VRB03KT P6SM -RA BKN027 OVC030
     FM260400 34004KT 2SM -RA BR BKN009 OVC015
     FM261200 23006KT 2SM -RA BR BKN006 OVC013
     FM261800 21007KT 3SM BR OVC012
      AMD LTD TO CLD AND VIS=



000
FTUS46 KOTX 252330
TAFEAT
TAF
KEAT 252330Z 2600/2624 VRB03KT 3SM -RA BR OVC005
      TEMPO 2600/2603 2SM -RA BR OVC002
     FM260600 31004KT 1SM BR OVC004
     FM261200 30002KT 3SM BR OVC001
     FM262000 28004KT P6SM OVC018=



000
FTUS46 KOTX 252117 AAA
TAFLWS
TAF AMD
KLWS 252117Z 2521/2618 27005KT 6SM -RA OVC024
     FM252300 26003KT 4SM -RA BR OVC007
     FM260600 24004KT P6SM OVC025
     FM261200 23010KT P6SM SCT025 BKN050=



000
FTUS46 KOTX 252117 AAA
TAFLWS
TAF AMD
KLWS 252117Z 2521/2618 27005KT 6SM -RA OVC024
     FM252300 26003KT 4SM -RA BR OVC007
     FM260600 24004KT P6SM OVC025
     FM261200 23010KT P6SM SCT025 BKN050=



000
FTUS46 KOTX 252116 AAB
TAFPUW
TAF AMD
KPUW 252116Z 2521/2618 02012KT 5SM -RA BR OVC025
      TEMPO 2521/2524 3SM -RA BR OVC021
     FM260000 28010KT 2SM -RA BR OVC012
     FM261300 24016G24KT 3SM BR BKN017=



000
FTUS46 KOTX 252116 AAB
TAFPUW
TAF AMD
KPUW 252116Z 2521/2618 02012KT 5SM -RA BR OVC025
      TEMPO 2521/2524 3SM -RA BR OVC021
     FM260000 28010KT 2SM -RA BR OVC012
     FM261300 24016G24KT 3SM BR BKN017=



000
FTUS46 KOTX 252113 AAA
TAFCOE
TAF AMD
KCOE 252113Z 2521/2618 20006KT P6SM BKN045
     FM260400 34004KT 2SM -RA BR BKN009 OVC015
     FM261200 22010G16KT 2SM -RA BR BKN006 OVC013
      AMD LTD TO CLD AND VIS=



000
FTUS46 KOTX 252113 AAA
TAFCOE
TAF AMD
KCOE 252113Z 2521/2618 20006KT P6SM BKN045
     FM260400 34004KT 2SM -RA BR BKN009 OVC015
     FM261200 22010G16KT 2SM -RA BR BKN006 OVC013
      AMD LTD TO CLD AND VIS=



000
FTUS46 KOTX 252111 AAA
TAFEAT
TAF AMD
KEAT 252111Z 2521/2618 VRB03KT 4SM -RA BR FEW004 OVC024
      TEMPO 2521/2524 1/2SM -RA FG BKN002 OVC024
     FM260000 32005KT 4SM -RA BR BKN010 OVC016
     FM260600 31005KT P6SM OVC012=



000
FTUS46 KOTX 252111 AAA
TAFEAT
TAF AMD
KEAT 252111Z 2521/2618 VRB03KT 4SM -RA BR FEW004 OVC024
      TEMPO 2521/2524 1/2SM -RA FG BKN002 OVC024
     FM260000 32005KT 4SM -RA BR BKN010 OVC016
     FM260600 31005KT P6SM OVC012=



000
FTUS46 KOTX 251830 AAA
TAFPUW
TAF AMD
KPUW 251830Z 2519/2618 31010KT 6SM -RA BR FEW006 OVC011
     FM260000 28010KT 2SM -RA BR OVC012
     FM261300 24016G24KT 3SM BR BKN017=



000
FTUS46 KOTX 251830 AAA
TAFPUW
TAF AMD
KPUW 251830Z 2519/2618 31010KT 6SM -RA BR FEW006 OVC011
     FM260000 28010KT 2SM -RA BR OVC012
     FM261300 24016G24KT 3SM BR BKN017=



000
FTUS46 KOTX 251729
TAFPUW
TAF
KPUW 251729Z 2518/2618 31010KT 3SM -RA BR BKN005 OVC030
     FM260000 28010KT 2SM -RA BR OVC012
     FM261300 24016G24KT 3SM BR BKN017=



000
FTUS46 KOTX 251729
TAFMWH
TAF
KMWH 251729Z 2518/2618 33006KT P6SM -RA SCT050 OVC070
     FM252200 34003KT 4SM -RA BR BKN020 OVC030
     FM260600 21007KT P6SM OVC040=



000
FTUS46 KOTX 251729
TAFSFF
TAF
KSFF 251729Z 2518/2618 VRB03KT P6SM VCSH SCT003 OVC035
     FM260400 VRB03KT 5SM -RA BR BKN011 OVC017
     FM261200 23008G17KT 3SM -RA BR BKN008 OVC014=



000
FTUS46 KOTX 251729
TAFLWS
TAF
KLWS 251729Z 2518/2618 30005KT P6SM -RA SCT025 OVC050
     FM252300 26003KT 4SM -RA BR OVC007
     FM260600 24004KT P6SM OVC025
     FM261200 23010KT P6SM SCT025 BKN050=



000
FTUS46 KOTX 251729
TAFMWH
TAF
KMWH 251729Z 2518/2618 33006KT P6SM -RA SCT050 OVC070
     FM252200 34003KT 4SM -RA BR BKN020 OVC030
     FM260600 21007KT P6SM OVC040=



000
FTUS46 KOTX 251729
TAFSFF
TAF
KSFF 251729Z 2518/2618 VRB03KT P6SM VCSH SCT003 OVC035
     FM260400 VRB03KT 5SM -RA BR BKN011 OVC017
     FM261200 23008G17KT 3SM -RA BR BKN008 OVC014=



000
FTUS46 KOTX 251729
TAFGEG
TAF
KGEG 251729Z 2518/2618 36005KT 3SM BR VCSH SCT005 OVC045
     FM260300 23004KT 5SM -RA BR BKN008 OVC015
     FM261200 21012G23KT 1SM -RA BR BKN003 OVC010=



000
FTUS46 KOTX 251729
TAFEAT
TAF
KEAT 251729Z 2518/2618 VRB03KT 6SM -RA BR SCT016 OVC022
     FM252200 32005KT 4SM -RA BR BKN010 OVC016
     FM260600 31005KT P6SM OVC012=



000
FTUS46 KOTX 251729
TAFLWS
TAF
KLWS 251729Z 2518/2618 30005KT P6SM -RA SCT025 OVC050
     FM252300 26003KT 4SM -RA BR OVC007
     FM260600 24004KT P6SM OVC025
     FM261200 23010KT P6SM SCT025 BKN050=



000
FTUS46 KOTX 251729
TAFCOE
TAF
KCOE 251729Z 2518/2618 22006KT 3SM BR SCT009 OVC040
     FM260400 34004KT 2SM -RA BR BKN009 OVC015
     FM261200 22010G16KT 2SM -RA BR BKN006 OVC013
      AMD LTD TO CLD AND VIS=



000
FTUS46 KOTX 251729
TAFEAT
TAF
KEAT 251729Z 2518/2618 VRB03KT 6SM -RA BR SCT016 OVC022
     FM252200 32005KT 4SM -RA BR BKN010 OVC016
     FM260600 31005KT P6SM OVC012=



000
FTUS46 KOTX 251729
TAFGEG
TAF
KGEG 251729Z 2518/2618 36005KT 3SM BR VCSH SCT005 OVC045
     FM260300 23004KT 5SM -RA BR BKN008 OVC015
     FM261200 21012G23KT 1SM -RA BR BKN003 OVC010=



000
FTUS46 KOTX 251729
TAFPUW
TAF
KPUW 251729Z 2518/2618 31010KT 3SM -RA BR BKN005 OVC030
     FM260000 28010KT 2SM -RA BR OVC012
     FM261300 24016G24KT 3SM BR BKN017=



000
FTUS46 KOTX 251729
TAFCOE
TAF
KCOE 251729Z 2518/2618 22006KT 3SM BR SCT009 OVC040
     FM260400 34004KT 2SM -RA BR BKN009 OVC015
     FM261200 22010G16KT 2SM -RA BR BKN006 OVC013
      AMD LTD TO CLD AND VIS=



000
FTUS46 KOTX 251609 AAC
TAFGEG
TAF AMD
KGEG 251609Z 2516/2612 33005KT 2SM -RA BR SCT003 OVC035
     FM251800 34005KT 2SM BR SCT005 OVC021
     FM260600 23004KT 5SM -RA BR BKN008 OVC015
     FM260900 21012G20KT P6SM SCT015 OVC030=



000
FTUS46 KOTX 251606 AAA
TAFSFF
TAF AMD
KSFF 251606Z 2516/2612 24004KT 5SM -RA BR OVC045
     FM251800 00000KT 5SM BR SCT003 OVC021
     FM252200 33002KT P6SM OVC009
     FM260600 22004KT 5SM -RA BR SCT009 OVC015
     FM261000 23008KT P6SM SCT015 OVC030=



000
FTUS46 KOTX 251606 AAA
TAFSFF
TAF AMD
KSFF 251606Z 2516/2612 24004KT 5SM -RA BR OVC045
     FM251800 00000KT 5SM BR SCT003 OVC021
     FM252200 33002KT P6SM OVC009
     FM260600 22004KT 5SM -RA BR SCT009 OVC015
     FM261000 23008KT P6SM SCT015 OVC030=



000
FTUS46 KOTX 251530 AAA
TAFPUW
TAF AMD
KPUW 251530Z 2516/2612 26015G22KT P6SM OVC010
     FM251800 27010KT 5SM -RA BR OVC009
     FM260200 25006KT 6SM BR OVC012
     FM260500 24016G24KT P6SM BKN040=



000
FTUS46 KOTX 251530 AAA
TAFPUW
TAF AMD
KPUW 251530Z 2516/2612 26015G22KT P6SM OVC010
     FM251800 27010KT 5SM -RA BR OVC009
     FM260200 25006KT 6SM BR OVC012
     FM260500 24016G24KT P6SM BKN040=



000
FTUS46 KOTX 251528 AAB
TAFGEG
TAF AMD
KGEG 251528Z 2515/2612 36008KT 1SM -RA BR BKN003 OVC035
     FM251800 34005KT 2SM BR OVC005
     FM260600 23004KT 5SM -RA BR BKN008 OVC015
     FM260900 21012G20KT P6SM SCT015 OVC030=



000
FTUS46 KOTX 251528 AAB
TAFGEG
TAF AMD
KGEG 251528Z 2515/2612 36008KT 1SM -RA BR BKN003 OVC035
     FM251800 34005KT 2SM BR OVC005
     FM260600 23004KT 5SM -RA BR BKN008 OVC015
     FM260900 21012G20KT P6SM SCT015 OVC030=



000
FTUS46 KOTX 251310 AAA
TAFGEG
TAF AMD
KGEG 251310Z 2513/2612 27006KT 5SM -RA BR BKN003 OVC008
     FM251800 29005KT P6SM OVC005
     FM260600 23004KT 5SM -RA BR BKN008 OVC015
     FM260900 21012G20KT P6SM SCT015 OVC030=



000
FTUS46 KOTX 251148 CCA
TAFMWH
TAF COR
KMWH 251148Z 2512/2612 35006KT P6SM OVC150
     FM251500 34003KT P6SM BKN070 OVC100
     FM260500 20005KT P6SM BKN025 OVC040=



000
FTUS46 KOTX 251148 CCA
TAFMWH
TAF COR
KMWH 251148Z 2512/2612 35006KT P6SM OVC150
     FM251500 34003KT P6SM BKN070 OVC100
     FM260500 20005KT P6SM BKN025 OVC040=



000
FTUS46 KOTX 251143 AAA
TAFEAT
TAF AMD
KEAT 251143Z 2512/2612 00000KT P6SM -RA BKN015 BKN070 OVC100
     FM251600 28005KT P6SM SCT020 BKN080 BKN150=



000
FTUS46 KOTX 251143 AAA
TAFEAT
TAF AMD
KEAT 251143Z 2512/2612 00000KT P6SM -RA BKN015 BKN070 OVC100
     FM251600 28005KT P6SM SCT020 BKN080 BKN150=



000
FTUS46 KOTX 251142 CCA
TAFEAT
TAF COR
KEAT 251142Z 2512/2612 00000KT P6SM -RA BKN070 OVC100
     FM251600 28005KT P6SM BKN080 BKN150=



000
FTUS46 KOTX 251142 CCA
TAFEAT
TAF COR
KEAT 251142Z 2512/2612 00000KT P6SM -RA BKN070 OVC100
     FM251600 28005KT P6SM BKN080 BKN150=



000
FTUS46 KOTX 251138
TAFSFF
TAF
KSFF 251138Z 2512/2612 24004KT P6SM VCSH SCT008 OVC014
     FM251300 VRB03KT 6SM -RA BR BKN008 OVC014
     FM251900 00000KT 5SM BR SCT003 OVC007
     FM252200 33002KT P6SM OVC009
     FM260600 22004KT 5SM -RA BR SCT009 OVC015
     FM261000 23008KT P6SM SCT015 OVC030=



000
FTUS46 KOTX 251138
TAFLWS
TAF
KLWS 251138Z 2512/2612 VRB04KT P6SM -RA OVC050
     FM251500 26003KT 5SM -RA BR OVC025
     FM260100 24004KT P6SM OVC020
     FM260500 25007KT P6SM SCT025 BKN050=



000
FTUS46 KOTX 251138
TAFPUW
TAF
KPUW 251138Z 2512/2612 25020G27KT P6SM SCT020 OVC040
     FM251400 26015G25KT P6SM -RA OVC030
     FM251800 27010KT 5SM -RA BR OVC015
     FM260200 25006KT 6SM BR OVC012
     FM260500 24016G24KT P6SM BKN040=



000
FTUS46 KOTX 251138
TAFEAT
TAF
KEAT 251138Z 2512/2612 00000KT P6SM BKN080 OVC100
     FM251800 31004KT P6SM VCSH BKN030 OVC050
     FM252000 30004KT 5SM -RA SCT009 BKN015 OVC023
     FM260300 17004KT 5SM BR VCSH SCT009 OVC015=



000
FTUS46 KOTX 251138
TAFCOE
TAF
KCOE 251138Z 2512/2612 22006KT 6SM -RA BR SCT008 OVC012
     FM251900 33004KT P6SM SCT008 OVC015
     FM260500 24004KT 6SM -RA BR OVC009
     FM261000 22010G16KT P6SM BKN015 OVC025
      AMD LTD TO CLD AND VIS=



000
FTUS46 KOTX 251138
TAFMWH
TAF
KMWH 251138Z 2512/2612 36006KT P6SM BKN150
     FM251500 31006KT P6SM SCT025 OVC060
     FM252300 33005KT 5SM -RA BR SCT018 OVC025=



000
FTUS46 KOTX 251138
TAFGEG
TAF
KGEG 251138Z 2512/2612 25007KT P6SM VCSH SCT005 OVC008
     FM251400 27006KT 6SM -RA BR SCT003 OVC007
     FM251800 29005KT P6SM OVC005
     FM260600 23004KT 5SM -RA BR BKN008 OVC015
     FM260900 21012G20KT P6SM SCT015 OVC030=



000
FTUS46 KOTX 251138
TAFSFF
TAF
KSFF 251138Z 2512/2612 24004KT P6SM VCSH SCT008 OVC014
     FM251300 VRB03KT 6SM -RA BR BKN008 OVC014
     FM251900 00000KT 5SM BR SCT003 OVC007
     FM252200 33002KT P6SM OVC009
     FM260600 22004KT 5SM -RA BR SCT009 OVC015
     FM261000 23008KT P6SM SCT015 OVC030=



000
FTUS46 KOTX 251138
TAFGEG
TAF
KGEG 251138Z 2512/2612 25007KT P6SM VCSH SCT005 OVC008
     FM251400 27006KT 6SM -RA BR SCT003 OVC007
     FM251800 29005KT P6SM OVC005
     FM260600 23004KT 5SM -RA BR BKN008 OVC015
     FM260900 21012G20KT P6SM SCT015 OVC030=



000
FTUS46 KOTX 251138
TAFCOE
TAF
KCOE 251138Z 2512/2612 22006KT 6SM -RA BR SCT008 OVC012
     FM251900 33004KT P6SM SCT008 OVC015
     FM260500 24004KT 6SM -RA BR OVC009
     FM261000 22010G16KT P6SM BKN015 OVC025
      AMD LTD TO CLD AND VIS=



000
FTUS46 KOTX 251138
TAFMWH
TAF
KMWH 251138Z 2512/2612 36006KT P6SM BKN150
     FM251500 31006KT P6SM SCT025 OVC060
     FM252300 33005KT 5SM -RA BR SCT018 OVC025=



000
FTUS46 KOTX 251138
TAFLWS
TAF
KLWS 251138Z 2512/2612 VRB04KT P6SM -RA OVC050
     FM251500 26003KT 5SM -RA BR OVC025
     FM260100 24004KT P6SM OVC020
     FM260500 25007KT P6SM SCT025 BKN050=



000
FTUS46 KOTX 251138
TAFEAT
TAF
KEAT 251138Z 2512/2612 00000KT P6SM BKN080 OVC100
     FM251800 31004KT P6SM VCSH BKN030 OVC050
     FM252000 30004KT 5SM -RA SCT009 BKN015 OVC023
     FM260300 17004KT 5SM BR VCSH SCT009 OVC015=



000
FTUS46 KOTX 251138
TAFPUW
TAF
KPUW 251138Z 2512/2612 25020G27KT P6SM SCT020 OVC040
     FM251400 26015G25KT P6SM -RA OVC030
     FM251800 27010KT 5SM -RA BR OVC015
     FM260200 25006KT 6SM BR OVC012
     FM260500 24016G24KT P6SM BKN040=



000
FTUS46 KOTX 250542 CCB
TAFSFF
TAF COR
KSFF 250542Z 2506/2606 20010KT P6SM -SHRA OVC030
     FM250800 21009KT P6SM VCSH OVC030
     FM251600 28004KT P6SM VCSH OVC035
     FM260200 VRB02KT P6SM -RA OVC030=



000
FTUS46 KOTX 250541 CCA
TAFPUW
TAF COR
KPUW 250541Z 2506/2606 15012KT 6SM -RA BR FEW007 BKN010 OVC020
     FM250700 21013G21KT 5SM -RA BR SCT005 BKN010 OVC020
     FM251400 26009KT 3SM -RA BR SCT008 OVC012=



000
FTUS46 KOTX 250541 CCA
TAFPUW
TAF COR
KPUW 250541Z 2506/2606 15012KT 6SM -RA BR FEW007 BKN010 OVC020
     FM250700 21013G21KT 5SM -RA BR SCT005 BKN010 OVC020
     FM251400 26009KT 3SM -RA BR SCT008 OVC012=



000
FTUS46 KOTX 250540 CCA
TAFSFF
TAF COR
KSFF 250540Z 2506/2606 20010KT P6SM -SHRA OVC030
     FM250800 21009KT P6SM VCSH OVC030
     FM251600 28004KT P6SM VCSH OVC035
     FM260200 VRB02KT P6SM -RA OVC030=



000
FTUS46 KOTX 250540
TAFGEG
TAF
KGEG 250540Z 2506/2606 19012G18KT P6SM VCSH SCT015 OVC025
     FM251300 27008KT P6SM VCSH SCT015 OVC025
     FM260200 23004KT 5SM -RA BR SCT012 OVC020=



000
FTUS46 KOTX 250540
TAFPUW
TAF
KPUW 250540Z 2506/2606 15012KT 5SM -RA BR SCT010 OVC020
     FM250700 21013G21KT 5SM -RA BR SCT005 BKN010 OVC020
     FM251400 26009KT 3SM -RA BR SCT008 OVC012=



000
FTUS46 KOTX 250540
TAFLWS
TAF
KLWS 250540Z 2506/2606 17012KT P6SM -RA OVC035
     FM250900 20012KT P6SM -SHRA SCT025 OVC035
     FM251600 25006KT 6SM -RA OVC021
     FM260100 24004KT P6SM VCSH SCT025 OVC060=



000
FTUS46 KOTX 250540
TAFSFF
TAF
KSFF 250540Z 2506/2606 20010KT P6SM -SHRA OVC035
     FM250800 21009KT P6SM VCSH OVC030
     FM251600 28004KT P6SM VCSH OVC035
     FM260200 VRB02KT P6SM -RA OVC030=



000
FTUS46 KOTX 250540
TAFEAT
TAF
KEAT 250540Z 2506/2606 06004KT P6SM BKN040 OVC080
     FM250900 30005KT P6SM BKN040 OVC080
     FM251800 31004KT P6SM VCSH BKN030 OVC050
     FM252000 30004KT 5SM -RA SCT009 BKN015 OVC023
     FM260300 17004KT 5SM BR VCSH SCT009 OVC015=



000
FTUS46 KOTX 250540
TAFMWH
TAF
KMWH 250540Z 2506/2606 17006KT P6SM BKN060
     FM250800 21005KT P6SM OVC060
     FM251500 31006KT P6SM SCT025 OVC060
     FM252300 33005KT 5SM -RA BR SCT018 OVC025=



000
FTUS46 KOTX 250540
TAFEAT
TAF
KEAT 250540Z 2506/2606 06004KT P6SM BKN040 OVC080
     FM250900 30005KT P6SM BKN040 OVC080
     FM251800 31004KT P6SM VCSH BKN030 OVC050
     FM252000 30004KT 5SM -RA SCT009 BKN015 OVC023
     FM260300 17004KT 5SM BR VCSH SCT009 OVC015=



000
FTUS46 KOTX 250540
TAFCOE
TAF
KCOE 250540Z 2506/2606 18015KT P6SM -RA FEW015 OVC027
     FM250800 20012KT 3SM -SHRA BR OVC015
     FM251300 26008KT 5SM -SHRA OVC015
     FM260100 29004KT 3SM -RA BR SCT012 OVC020
      AMD LTD TO CLD AND VIS=



000
FTUS46 KOTX 250540
TAFPUW
TAF
KPUW 250540Z 2506/2606 15012KT 5SM -RA BR SCT010 OVC020
     FM250700 21013G21KT 5SM -RA BR SCT005 BKN010 OVC020
     FM251400 26009KT 3SM -RA BR SCT008 OVC012=



000
FTUS46 KOTX 250540
TAFGEG
TAF
KGEG 250540Z 2506/2606 19012G18KT P6SM VCSH SCT015 OVC025
     FM251300 27008KT P6SM VCSH SCT015 OVC025
     FM260200 23004KT 5SM -RA BR SCT012 OVC020=



000
FTUS46 KOTX 250540
TAFLWS
TAF
KLWS 250540Z 2506/2606 17012KT P6SM -RA OVC035
     FM250900 20012KT P6SM -SHRA SCT025 OVC035
     FM251600 25006KT 6SM -RA OVC021
     FM260100 24004KT P6SM VCSH SCT025 OVC060=



000
FTUS46 KOTX 250540
TAFSFF
TAF
KSFF 250540Z 2506/2606 20010KT P6SM -SHRA OVC035
     FM250800 21009KT P6SM VCSH OVC030
     FM251600 28004KT P6SM VCSH OVC035
     FM260200 VRB02KT P6SM -RA OVC030=



000
FTUS46 KOTX 250540
TAFMWH
TAF
KMWH 250540Z 2506/2606 17006KT P6SM BKN060
     FM250800 21005KT P6SM OVC060
     FM251500 31006KT P6SM SCT025 OVC060
     FM252300 33005KT 5SM -RA BR SCT018 OVC025=



000
FTUS46 KOTX 250540
TAFCOE
TAF
KCOE 250540Z 2506/2606 18015KT P6SM -RA FEW015 OVC027
     FM250800 20012KT 3SM -SHRA BR OVC015
     FM251300 26008KT 5SM -SHRA OVC015
     FM260100 29004KT 3SM -RA BR SCT012 OVC020
      AMD LTD TO CLD AND VIS=



000
FTUS46 KOTX 250540 CCA
TAFSFF
TAF COR
KSFF 250540Z 2506/2606 20010KT P6SM -SHRA OVC030
     FM250800 21009KT P6SM VCSH OVC030
     FM251600 28004KT P6SM VCSH OVC035
     FM260200 VRB02KT P6SM -RA OVC030=



000
FTUS46 KOTX 242329
TAFMWH
TAF
KMWH 242329Z 2500/2524 18006KT P6SM OVC090
     FM250300 18007KT P6SM -RA BKN035 OVC080
     FM250800 21005KT P6SM OVC060
     FM251500 31006KT P6SM -RA OVC021
     FM251900 33005KT 5SM -RA BR OVC015=



000
FTUS46 KOTX 242329
TAFPUW
TAF
KPUW 242329Z 2500/2524 14011KT P6SM VCSH OVC100
     FM250400 15012KT P6SM -RA OVC035
     FM250900 21013G21KT 6SM -RA BKN015 OVC025
     FM251600 26009KT 3SM -RA BR OVC012=



000
FTUS46 KOTX 242329
TAFCOE
TAF
KCOE 242329Z 2500/2524 15005KT P6SM VCSH SCT030 OVC035
     FM250400 19005KT P6SM -RA OVC027
     FM250800 23006KT 3SM BR VCSH OVC015
     FM251300 25008KT 3SM -RA OVC012
     FM251600 29004KT 2SM -RA BR BKN006 OVC014
      AMD LTD TO CLD AND VIS=



000
FTUS46 KOTX 242329
TAFGEG
TAF
KGEG 242329Z 2500/2524 16008KT P6SM VCSH BKN022 OVC100
     FM250300 19010KT 5SM -RA BR OVC015
     FM250900 20011KT 1SM BR VCSH OVC012
     FM251200 23008KT 2SM -RA BR BKN007 OVC015
     FM251600 29006KT 1 1/2SM -RA BR BKN004 OVC012=



000
FTUS46 KOTX 242329
TAFLWS
TAF
KLWS 242329Z 2500/2524 VRB03KT P6SM VCSH SCT080 OVC100
     FM250600 14006KT P6SM -RA OVC035
     FM250900 20008KT P6SM VCSH BKN025 OVC035
     FM251600 25006KT 6SM -RA OVC021=



000
FTUS46 KOTX 242329
TAFEAT
TAF
KEAT 242329Z 2500/2524 11005KT P6SM SCT060 BKN250
     FM250300 VRB03KT P6SM VCSH SCT035 OVC050
     FM251300 30005KT 4SM BR VCSH OVC018
     FM252000 30004KT 5SM -RA OVC023=



000
FTUS46 KOTX 242329
TAFSFF
TAF
KSFF 242329Z 2500/2524 VRB03KT P6SM VCSH OVC024
     FM250300 19005KT 6SM -RA OVC028
     FM250800 21004KT 2SM BR VCSH OVC018
     FM251200 23003KT 3SM -RA BR OVC014
     FM251600 28004KT 2SM -RA BR BKN011 OVC015=



000
FTUS46 KOTX 242329
TAFMWH
TAF
KMWH 242329Z 2500/2524 18006KT P6SM OVC090
     FM250300 18007KT P6SM -RA BKN035 OVC080
     FM250800 21005KT P6SM OVC060
     FM251500 31006KT P6SM -RA OVC021
     FM251900 33005KT 5SM -RA BR OVC015=



000
FTUS46 KOTX 242329
TAFCOE
TAF
KCOE 242329Z 2500/2524 15005KT P6SM VCSH SCT030 OVC035
     FM250400 19005KT P6SM -RA OVC027
     FM250800 23006KT 3SM BR VCSH OVC015
     FM251300 25008KT 3SM -RA OVC012
     FM251600 29004KT 2SM -RA BR BKN006 OVC014
      AMD LTD TO CLD AND VIS=



000
FTUS46 KOTX 242329
TAFGEG
TAF
KGEG 242329Z 2500/2524 16008KT P6SM VCSH BKN022 OVC100
     FM250300 19010KT 5SM -RA BR OVC015
     FM250900 20011KT 1SM BR VCSH OVC012
     FM251200 23008KT 2SM -RA BR BKN007 OVC015
     FM251600 29006KT 1 1/2SM -RA BR BKN004 OVC012=



000
FTUS46 KOTX 242329
TAFSFF
TAF
KSFF 242329Z 2500/2524 VRB03KT P6SM VCSH OVC024
     FM250300 19005KT 6SM -RA OVC028
     FM250800 21004KT 2SM BR VCSH OVC018
     FM251200 23003KT 3SM -RA BR OVC014
     FM251600 28004KT 2SM -RA BR BKN011 OVC015=



000
FTUS46 KOTX 242329
TAFEAT
TAF
KEAT 242329Z 2500/2524 11005KT P6SM SCT060 BKN250
     FM250300 VRB03KT P6SM VCSH SCT035 OVC050
     FM251300 30005KT 4SM BR VCSH OVC018
     FM252000 30004KT 5SM -RA OVC023=



000
FTUS46 KOTX 242329
TAFLWS
TAF
KLWS 242329Z 2500/2524 VRB03KT P6SM VCSH SCT080 OVC100
     FM250600 14006KT P6SM -RA OVC035
     FM250900 20008KT P6SM VCSH BKN025 OVC035
     FM251600 25006KT 6SM -RA OVC021=



000
FTUS46 KOTX 242329
TAFPUW
TAF
KPUW 242329Z 2500/2524 14011KT P6SM VCSH OVC100
     FM250400 15012KT P6SM -RA OVC035
     FM250900 21013G21KT 6SM -RA BKN015 OVC025
     FM251600 26009KT 3SM -RA BR OVC012=



000
FTUS46 KOTX 242140 AAA
TAFSFF
TAF AMD
KSFF 242140Z 2422/2518 VRB03KT P6SM VCSH BKN024 OVC100
     FM250300 19005KT 6SM -RA OVC028
     FM250600 20007KT 5SM -RA BR OVC018
     FM251400 VRB03KT 4SM BR VCSH OVC025=



000
FTUS46 KOTX 242140 AAA
TAFSFF
TAF AMD
KSFF 242140Z 2422/2518 VRB03KT P6SM VCSH BKN024 OVC100
     FM250300 19005KT 6SM -RA OVC028
     FM250600 20007KT 5SM -RA BR OVC018
     FM251400 VRB03KT 4SM BR VCSH OVC025=



000
FTUS46 KOTX 242140 AAA
TAFSFF
TAF AMD
KSFF 242140Z 2422/2518 VRB03KT P6SM VCSH BKN024 OVC100
     FM250300 19005KT 6SM -RA OVC028
     FM250600 20007KT 5SM -RA BR OVC018
     FM251400 VRB03KT 4SM BR VCSH OVC025=



000
FTUS46 KOTX 242140 AAA
TAFGEG
TAF AMD
KGEG 242140Z 2422/2518 15010KT P6SM VCSH BKN017 OVC090
     FM250300 19010KT 6SM -RA OVC020
     FM250600 20011KT 5SM -RA BR OVC015
     FM251400 23008KT 3SM BR VCSH BKN007 OVC015=



000
FTUS46 KOTX 242140 AAA
TAFGEG
TAF AMD
KGEG 242140Z 2422/2518 15010KT P6SM VCSH BKN017 OVC090
     FM250300 19010KT 6SM -RA OVC020
     FM250600 20011KT 5SM -RA BR OVC015
     FM251400 23008KT 3SM BR VCSH BKN007 OVC015=



000
FTUS46 KOTX 242140 AAA
TAFGEG
TAF AMD
KGEG 242140Z 2422/2518 15010KT P6SM VCSH BKN017 OVC090
     FM250300 19010KT 6SM -RA OVC020
     FM250600 20011KT 5SM -RA BR OVC015
     FM251400 23008KT 3SM BR VCSH BKN007 OVC015=



000
FTUS46 KOTX 242140 AAA
TAFSFF
TAF AMD
KSFF 242140Z 2422/2518 VRB03KT P6SM VCSH BKN024 OVC100
     FM250300 19005KT 6SM -RA OVC028
     FM250600 20007KT 5SM -RA BR OVC018
     FM251400 VRB03KT 4SM BR VCSH OVC025=



000
FTUS46 KOTX 241734
TAFSFF
TAF
KSFF 241734Z 2418/2518 04003KT P6SM SCT150 OVC200
     FM242100 17004KT P6SM VCSH BKN070 OVC100
     FM250300 19005KT 6SM -RA OVC028
     FM250600 20007KT 5SM -RA BR OVC018
     FM251400 VRB03KT 4SM BR VCSH OVC025=



000
FTUS46 KOTX 241734
TAFGEG
TAF
KGEG 241734Z 2418/2518 16007KT P6SM SCT150 OVC200
     FM242100 18008KT P6SM VCSH BKN070 OVC100
     FM250300 19010KT 6SM -RA OVC025
     FM250600 20011KT 5SM -RA BR OVC015
     FM251400 23008KT 3SM BR VCSH BKN007 OVC015=



000
FTUS46 KOTX 241734
TAFPUW
TAF
KPUW 241734Z 2418/2518 11004KT P6SM SCT150 OVC200
     FM242300 14005KT P6SM VCSH BKN100 OVC150
     FM250400 14010KT P6SM -RA OVC035
     FM250800 19013KT 6SM -RA SCT015 OVC025
     FM251500 25009KT 5SM BR VCSH OVC015=



000
FTUS46 KOTX 241734
TAFCOE
TAF
KCOE 241734Z 2418/2518 19005KT P6SM SCT150 OVC200
     FM242100 18007KT P6SM VCSH BKN080 OVC100
     FM250200 19005KT P6SM -RA BKN030 OVC050
     FM250600 21007KT 6SM -RA OVC015
     FM251400 26006KT 3SM BR VCSH BKN012 OVC025
      AMD LTD TO CLD AND VIS=



000
FTUS46 KOTX 241734
TAFMWH
TAF
KMWH 241734Z 2418/2518 16004KT P6SM SCT150 BKN250
     FM242300 17006KT P6SM OVC100
     FM250300 18007KT P6SM VCSH BKN050 OVC100
     FM250800 22005KT P6SM OVC060
     FM251500 31006KT P6SM VCSH OVC025=



000
FTUS46 KOTX 241734
TAFLWS
TAF
KLWS 241734Z 2418/2518 VRB03KT P6SM SCT150 OVC200
     FM242300 15005KT P6SM VCSH SCT080 OVC100
     FM250400 15006KT P6SM -RA OVC050
     FM250700 20008KT P6SM -RA BKN035 OVC050
     FM251400 23008KT P6SM -RA OVC025=



000
FTUS46 KOTX 241734
TAFEAT
TAF
KEAT 241734Z 2418/2518 10003KT P6SM SCT150 BKN250
     FM242300 05004KT P6SM SCT050 OVC100
     FM250200 VRB03KT P6SM VCSH BKN050 OVC100
     FM251500 30005KT 6SM BR VCSH OVC025=



000
FTUS46 KOTX 241734
TAFLWS
TAF
KLWS 241734Z 2418/2518 VRB03KT P6SM SCT150 OVC200
     FM242300 15005KT P6SM VCSH SCT080 OVC100
     FM250400 15006KT P6SM -RA OVC050
     FM250700 20008KT P6SM -RA BKN035 OVC050
     FM251400 23008KT P6SM -RA OVC025=



000
FTUS46 KOTX 241734
TAFPUW
TAF
KPUW 241734Z 2418/2518 11004KT P6SM SCT150 OVC200
     FM242300 14005KT P6SM VCSH BKN100 OVC150
     FM250400 14010KT P6SM -RA OVC035
     FM250800 19013KT 6SM -RA SCT015 OVC025
     FM251500 25009KT 5SM BR VCSH OVC015=



000
FTUS46 KOTX 241734
TAFEAT
TAF
KEAT 241734Z 2418/2518 10003KT P6SM SCT150 BKN250
     FM242300 05004KT P6SM SCT050 OVC100
     FM250200 VRB03KT P6SM VCSH BKN050 OVC100
     FM251500 30005KT 6SM BR VCSH OVC025=



000
FTUS46 KOTX 241734
TAFMWH
TAF
KMWH 241734Z 2418/2518 16004KT P6SM SCT150 BKN250
     FM242300 17006KT P6SM OVC100
     FM250300 18007KT P6SM VCSH BKN050 OVC100
     FM250800 22005KT P6SM OVC060
     FM251500 31006KT P6SM VCSH OVC025=



000
FTUS46 KOTX 241734
TAFGEG
TAF
KGEG 241734Z 2418/2518 16007KT P6SM SCT150 OVC200
     FM242100 18008KT P6SM VCSH BKN070 OVC100
     FM250300 19010KT 6SM -RA OVC025
     FM250600 20011KT 5SM -RA BR OVC015
     FM251400 23008KT 3SM BR VCSH BKN007 OVC015=



000
FTUS46 KOTX 241734
TAFSFF
TAF
KSFF 241734Z 2418/2518 04003KT P6SM SCT150 OVC200
     FM242100 17004KT P6SM VCSH BKN070 OVC100
     FM250300 19005KT 6SM -RA OVC028
     FM250600 20007KT 5SM -RA BR OVC018
     FM251400 VRB03KT 4SM BR VCSH OVC025=



000
FTUS46 KOTX 241734
TAFCOE
TAF
KCOE 241734Z 2418/2518 19005KT P6SM SCT150 OVC200
     FM242100 18007KT P6SM VCSH BKN080 OVC100
     FM250200 19005KT P6SM -RA BKN030 OVC050
     FM250600 21007KT 6SM -RA OVC015
     FM251400 26006KT 3SM BR VCSH BKN012 OVC025
      AMD LTD TO CLD AND VIS=



000
FTUS46 KOTX 241436 AAA
TAFCOE
TAF AMD
KCOE 241436Z 2415/2512 21003KT P6SM SCT012 SCT250
     FM241900 19007KT P6SM SCT020 BKN080 OVC100
     FM250200 19005KT P6SM -RA BKN030 OVC050
     FM250600 21007KT 6SM -RA OVC015
      AMD LTD TO CLD AND VIS=



000
FTUS46 KOTX 241436 AAA
TAFCOE
TAF AMD
KCOE 241436Z 2415/2512 21003KT P6SM SCT012 SCT250
     FM241900 19007KT P6SM SCT020 BKN080 OVC100
     FM250200 19005KT P6SM -RA BKN030 OVC050
     FM250600 21007KT 6SM -RA OVC015
      AMD LTD TO CLD AND VIS=



000
FTUS46 KOTX 241433 AAA
TAFSFF
TAF AMD
KSFF 241433Z 2415/2512 VRB03KT P6SM VCFG SCT001 SCT250
     FM241600 VRB03KT P6SM SCT007
     FM242000 17004KT P6SM BKN070 OVC100
     FM250300 19003KT 6SM -RA OVC028
     FM250600 20007KT 5SM -RA BR OVC018=



000
FTUS46 KOTX 241433 AAA
TAFSFF
TAF AMD
KSFF 241433Z 2415/2512 VRB03KT P6SM VCFG SCT001 SCT250
     FM241600 VRB03KT P6SM SCT007
     FM242000 17004KT P6SM BKN070 OVC100
     FM250300 19003KT 6SM -RA OVC028
     FM250600 20007KT 5SM -RA BR OVC018=



000
FTUS46 KOTX 241431 AAA
TAFGEG
TAF AMD
KGEG 241431Z 2415/2512 17005KT P6SM VCFG SCT001 SCT250
     FM241730 19005KT P6SM SCT004 BKN200
     FM242100 18007KT P6SM SCT070 OVC100
     FM250300 19010KT 6SM -RA OVC025
     FM250600 20011KT 5SM -RA BR OVC015=



000
FTUS46 KOTX 241431 AAA
TAFGEG
TAF AMD
KGEG 241431Z 2415/2512 17005KT P6SM VCFG SCT001 SCT250
     FM241730 19005KT P6SM SCT004 BKN200
     FM242100 18007KT P6SM SCT070 OVC100
     FM250300 19010KT 6SM -RA OVC025
     FM250600 20011KT 5SM -RA BR OVC015=



000
FTUS46 KOTX 241140
TAFPUW
TAF
KPUW 241140Z 2412/2512 25008KT P6SM SCT015 SCT250
     FM241600 15008KT P6SM FEW020 BKN200
     FM250400 14010KT P6SM -RA OVC035
     FM250800 19010KT 6SM -RA SCT015 OVC025=



000
FTUS46 KOTX 241140
TAFSFF
TAF
KSFF 241140Z 2412/2512 VRB03KT P6SM FEW008
     FM241400 VRB03KT P6SM BKN009
     FM241600 VRB03KT P6SM OVC008
     FM241900 17004KT P6SM BKN015 OVC100
     FM250300 19003KT 6SM -RA OVC028
     FM250600 20007KT 5SM -RA BR OVC018=



000
FTUS46 KOTX 241140
TAFCOE
TAF
KCOE 241140Z 2412/2512 21003KT P6SM FEW005
     FM241400 20004KT 6SM BR BKN005
     FM241700 19005KT P6SM BKN012
     FM242000 19005KT P6SM SCT020 OVC080
     FM250200 19005KT P6SM -RA OVC025
     FM250600 21007KT 6SM -RA OVC015
      AMD LTD TO CLD AND VIS=



000
FTUS46 KOTX 241140
TAFEAT
TAF
KEAT 241140Z 2412/2512 30003KT P6SM BKN250
     FM241900 10004KT P6SM SCT080 BKN100 OVC200
     FM250000 05004KT P6SM SCT030 BKN050 OVC080=



000
FTUS46 KOTX 241140
TAFLWS
TAF
KLWS 241140Z 2412/2512 VRB03KT P6SM SCT250
     FM242000 15005KT P6SM SCT080 OVC100
     FM250400 15006KT P6SM -RA OVC050
     FM250700 20008KT 6SM -RA BKN035 OVC050=



000
FTUS46 KOTX 241140
TAFGEG
TAF
KGEG 241140Z 2412/2512 22007KT P6SM FEW006
     FM241400 20005KT 6SM BR BKN006
     FM241600 19005KT 5SM BR OVC005
     FM241900 18007KT P6SM BKN012 OVC100
     FM250300 19010KT 6SM -RA OVC025
     FM250600 20011KT 5SM -RA BR OVC015=



000
FTUS46 KOTX 241140
TAFMWH
TAF
KMWH 241140Z 2412/2512 17006KT P6SM BKN250
     FM250300 17006KT P6SM VCSH BKN050 OVC100=



000
FTUS46 KOTX 241140
TAFLWS
TAF
KLWS 241140Z 2412/2512 VRB03KT P6SM SCT250
     FM242000 15005KT P6SM SCT080 OVC100
     FM250400 15006KT P6SM -RA OVC050
     FM250700 20008KT 6SM -RA BKN035 OVC050=



000
FTUS46 KOTX 241140
TAFMWH
TAF
KMWH 241140Z 2412/2512 17006KT P6SM BKN250
     FM250300 17006KT P6SM VCSH BKN050 OVC100=



000
FTUS46 KOTX 241140
TAFPUW
TAF
KPUW 241140Z 2412/2512 25008KT P6SM SCT015 SCT250
     FM241600 15008KT P6SM FEW020 BKN200
     FM250400 14010KT P6SM -RA OVC035
     FM250800 19010KT 6SM -RA SCT015 OVC025=



000
FTUS46 KOTX 241140
TAFGEG
TAF
KGEG 241140Z 2412/2512 22007KT P6SM FEW006
     FM241400 20005KT 6SM BR BKN006
     FM241600 19005KT 5SM BR OVC005
     FM241900 18007KT P6SM BKN012 OVC100
     FM250300 19010KT 6SM -RA OVC025
     FM250600 20011KT 5SM -RA BR OVC015=



000
FTUS46 KOTX 241140
TAFEAT
TAF
KEAT 241140Z 2412/2512 30003KT P6SM BKN250
     FM241900 10004KT P6SM SCT080 BKN100 OVC200
     FM250000 05004KT P6SM SCT030 BKN050 OVC080=



000
FTUS46 KOTX 241140
TAFCOE
TAF
KCOE 241140Z 2412/2512 21003KT P6SM FEW005
     FM241400 20004KT 6SM BR BKN005
     FM241700 19005KT P6SM BKN012
     FM242000 19005KT P6SM SCT020 OVC080
     FM250200 19005KT P6SM -RA OVC025
     FM250600 21007KT 6SM -RA OVC015
      AMD LTD TO CLD AND VIS=



000
FTUS46 KOTX 241140
TAFSFF
TAF
KSFF 241140Z 2412/2512 VRB03KT P6SM FEW008
     FM241400 VRB03KT P6SM BKN009
     FM241600 VRB03KT P6SM OVC008
     FM241900 17004KT P6SM BKN015 OVC100
     FM250300 19003KT 6SM -RA OVC028
     FM250600 20007KT 5SM -RA BR OVC018=



000
FTUS46 KOTX 241108 AAA
TAFCOE
TAF AMD
KCOE 241108Z 2411/2506 21003KT P6SM FEW005
     FM241400 20004KT 6SM BR BKN005
     FM241700 19005KT P6SM SCT010 OVC020
     FM242100 19005KT P6SM SCT020 BKN040 OVC080
     FM250200 19005KT P6SM -RA OVC025
      AMD LTD TO CLD AND VIS=



000
FTUS46 KOTX 241108 AAA
TAFCOE
TAF AMD
KCOE 241108Z 2411/2506 21003KT P6SM FEW005
     FM241400 20004KT 6SM BR BKN005
     FM241700 19005KT P6SM SCT010 OVC020
     FM242100 19005KT P6SM SCT020 BKN040 OVC080
     FM250200 19005KT P6SM -RA OVC025
      AMD LTD TO CLD AND VIS=



000
FTUS46 KOTX 241104 AAA
TAFGEG
TAF AMD
KGEG 241104Z 2411/2506 22007KT P6SM FEW006
     FM241400 20005KT 6SM BR BKN006
     FM241600 19005KT 5SM BR OVC005
     FM241900 18008KT P6SM SCT012 BKN080 OVC100
     FM250300 20010KT P6SM -RA OVC030=



000
FTUS46 KOTX 241104 AAA
TAFGEG
TAF AMD
KGEG 241104Z 2411/2506 22007KT P6SM FEW006
     FM241400 20005KT 6SM BR BKN006
     FM241600 19005KT 5SM BR OVC005
     FM241900 18008KT P6SM SCT012 BKN080 OVC100
     FM250300 20010KT P6SM -RA OVC030=



000
FTUS46 KOTX 240543 CCA
TAFEAT
TAF COR
KEAT 240543Z 2406/2506 32012KT P6SM SKC
     FM241000 30003KT P6SM SCT200
     FM241900 10004KT P6SM SCT080 BKN100 OVC200
     FM250000 05004KT P6SM SCT030 BKN050 OVC080=



000
FTUS46 KOTX 240543 CCA
TAFEAT
TAF COR
KEAT 240543Z 2406/2506 32012KT P6SM SKC
     FM241000 30003KT P6SM SCT200
     FM241900 10004KT P6SM SCT080 BKN100 OVC200
     FM250000 05004KT P6SM SCT030 BKN050 OVC080=



000
FTUS46 KOTX 240539
TAFGEG
TAF
KGEG 240539Z 2406/2506 23007KT P6SM FEW006
     FM241100 20005KT 3SM BR BKN006
     FM241500 19005KT 4SM BR BKN010 OVC120
     FM241900 18008KT P6SM SCT015 BKN080 OVC100
     FM250300 20010KT P6SM -RA OVC030=



000
FTUS46 KOTX 240539
TAFPUW
TAF
KPUW 240539Z 2406/2506 26014KT P6SM SKC
     FM241100 26007KT P6SM SCT015
     FM241600 17008KT P6SM FEW020 BKN150
     FM250300 17012KT P6SM -RA OVC040=



000
FTUS46 KOTX 240539
TAFSFF
TAF
KSFF 240539Z 2406/2506 VRB03KT P6SM SKC
     FM241200 VRB03KT P6SM VCFG OVC010
     FM242000 19003KT P6SM SCT020 BKN080 OVC100
     FM250300 VRB03KT P6SM -RA OVC040=



000
FTUS46 KOTX 240539
TAFLWS
TAF
KLWS 240539Z 2406/2506 25008KT P6SM SKC
     FM241800 15006KT P6SM FEW150 BKN200
     FM250100 13005KT P6SM OVC050=



000
FTUS46 KOTX 240539
TAFCOE
TAF
KCOE 240539Z 2406/2506 24007KT P6SM SKC
     FM240800 23005KT 5SM BR OVC010
     FM241800 19005KT P6SM SCT010 OVC020
     FM242100 19005KT P6SM SCT020 BKN040 OVC080
     FM250200 19005KT P6SM -RA OVC025
      AMD LTD TO CLD AND VIS=



000
FTUS46 KOTX 240539
TAFEAT
TAF
KEAT 240539Z 2406/2506 32012KT P6SM SKC
     FM241000 30003KT P6SM FEW200
     FM241800 26002KT P6SM SCT060 BKN100=



000
FTUS46 KOTX 240539
TAFMWH
TAF
KMWH 240539Z 2406/2506 26010KT P6SM SKC
     FM241300 23004KT P6SM SCT200
     FM242000 19007KT P6SM BKN100 OVC150
     FM250100 17006KT P6SM SCT070 OVC100=



000
FTUS46 KOTX 240539
TAFCOE
TAF
KCOE 240539Z 2406/2506 24007KT P6SM SKC
     FM240800 23005KT 5SM BR OVC010
     FM241800 19005KT P6SM SCT010 OVC020
     FM242100 19005KT P6SM SCT020 BKN040 OVC080
     FM250200 19005KT P6SM -RA OVC025
      AMD LTD TO CLD AND VIS=



000
FTUS46 KOTX 240539
TAFGEG
TAF
KGEG 240539Z 2406/2506 23007KT P6SM FEW006
     FM241100 20005KT 3SM BR BKN006
     FM241500 19005KT 4SM BR BKN010 OVC120
     FM241900 18008KT P6SM SCT015 BKN080 OVC100
     FM250300 20010KT P6SM -RA OVC030=



000
FTUS46 KOTX 240539
TAFPUW
TAF
KPUW 240539Z 2406/2506 26014KT P6SM SKC
     FM241100 26007KT P6SM SCT015
     FM241600 17008KT P6SM FEW020 BKN150
     FM250300 17012KT P6SM -RA OVC040=



000
FTUS46 KOTX 240539
TAFEAT
TAF
KEAT 240539Z 2406/2506 32012KT P6SM SKC
     FM241000 30003KT P6SM FEW200
     FM241800 26002KT P6SM SCT060 BKN100=



000
FTUS46 KOTX 240539
TAFLWS
TAF
KLWS 240539Z 2406/2506 25008KT P6SM SKC
     FM241800 15006KT P6SM FEW150 BKN200
     FM250100 13005KT P6SM OVC050=



000
FTUS46 KOTX 240539
TAFSFF
TAF
KSFF 240539Z 2406/2506 VRB03KT P6SM SKC
     FM241200 VRB03KT P6SM VCFG OVC010
     FM242000 19003KT P6SM SCT020 BKN080 OVC100
     FM250300 VRB03KT P6SM -RA OVC040=



000
FTUS46 KOTX 240539
TAFMWH
TAF
KMWH 240539Z 2406/2506 26010KT P6SM SKC
     FM241300 23004KT P6SM SCT200
     FM242000 19007KT P6SM BKN100 OVC150
     FM250100 17006KT P6SM SCT070 OVC100=



000
FTUS46 KOTX 232330
TAFGEG
TAF
KGEG 232330Z 2400/2424 23021G28KT P6SM VCSH FEW014 SCT060 BKN120
     FM240200 23012KT P6SM SCT060
     FM241100 20005KT P6SM VCFG OVC003
     FM241500 13003KT 1 1/2SM BR OVC002
     FM242000 11005KT 4SM BR FEW002 BKN007
     FM242200 20010KT P6SM SCT010 SCT080=



000
FTUS46 KOTX 232330
TAFLWS
TAF
KLWS 232330Z 2400/2424 22016G22KT P6SM -SHRA SCT025 BKN050 OVC100
      TEMPO 2400/2402 23020G30KT 4SM -RA BKN025 OVC050
     FM240200 23013G20KT P6SM BKN040
     FM240500 25010KT P6SM SCT070
     FM241200 VRB03KT P6SM FEW080
     FM241800 15007KT P6SM FEW150 BKN200=



000
FTUS46 KOTX 232330
TAFCOE
TAF
KCOE 232330Z 2400/2424 25012G20KT P6SM -SHRA OVC020
     FM240200 25010KT P6SM BKN030 BKN100
     FM241000 21004KT 2SM BR OVC010
     FM242000 12004KT P6SM SCT010 OVC020
      AMD LTD TO CLD AND VIS=



000
FTUS46 KOTX 232330
TAFPUW
TAF
KPUW 232330Z 2400/2424 23020G28KT P6SM VCSH BKN025 OVC035
     FM240200 25015G24KT P6SM SCT035 BKN120
     FM240600 25008KT P6SM BKN015
     FM241800 13006KT P6SM SCT020 SCT120=



000
FTUS46 KOTX 232330
TAFMWH
TAF
KMWH 232330Z 2400/2424 27022G31KT P6SM SCT120
     FM240100 25010KT P6SM FEW200
     FM240900 30004KT P6SM SCT200
     FM241800 03003KT P6SM SCT100 BKN150=



000
FTUS46 KOTX 232330
TAFSFF
TAF
KSFF 232330Z 2400/2424 25013G17KT P6SM VCSH SCT024 SCT025 OVC060
     FM240300 24006KT P6SM SCT060
     FM241200 VRB03KT P6SM VCFG OVC006
     FM241500 00000KT 2SM BR OVC004
     FM242000 16003KT P6SM SCT006 BKN015=



000
FTUS46 KOTX 232330
TAFMWH
TAF
KMWH 232330Z 2400/2424 27022G31KT P6SM SCT120
     FM240100 25010KT P6SM FEW200
     FM240900 30004KT P6SM SCT200
     FM241800 03003KT P6SM SCT100 BKN150=



000
FTUS46 KOTX 232330
TAFGEG
TAF
KGEG 232330Z 2400/2424 23021G28KT P6SM VCSH FEW014 SCT060 BKN120
     FM240200 23012KT P6SM SCT060
     FM241100 20005KT P6SM VCFG OVC003
     FM241500 13003KT 1 1/2SM BR OVC002
     FM242000 11005KT 4SM BR FEW002 BKN007
     FM242200 20010KT P6SM SCT010 SCT080=



000
FTUS46 KOTX 232330
TAFSFF
TAF
KSFF 232330Z 2400/2424 25013G17KT P6SM VCSH SCT024 SCT025 OVC060
     FM240300 24006KT P6SM SCT060
     FM241200 VRB03KT P6SM VCFG OVC006
     FM241500 00000KT 2SM BR OVC004
     FM242000 16003KT P6SM SCT006 BKN015=



000
FTUS46 KOTX 232330
TAFLWS
TAF
KLWS 232330Z 2400/2424 22016G22KT P6SM -SHRA SCT025 BKN050 OVC100
      TEMPO 2400/2402 23020G30KT 4SM -RA BKN025 OVC050
     FM240200 23013G20KT P6SM BKN040
     FM240500 25010KT P6SM SCT070
     FM241200 VRB03KT P6SM FEW080
     FM241800 15007KT P6SM FEW150 BKN200=



000
FTUS46 KOTX 232330
TAFEAT
TAF
KEAT 232330Z 2400/2424 29008KT P6SM VCSH SCT030 BKN120
      TEMPO 2400/2402 5SM -RA BKN030
     FM240200 32008KT P6SM BKN200
     FM241100 30003KT P6SM FEW100
     FM241800 26002KT P6SM SCT060 BKN100=



000
FTUS46 KOTX 232330
TAFEAT
TAF
KEAT 232330Z 2400/2424 29008KT P6SM VCSH SCT030 BKN120
      TEMPO 2400/2402 5SM -RA BKN030
     FM240200 32008KT P6SM BKN200
     FM241100 30003KT P6SM FEW100
     FM241800 26002KT P6SM SCT060 BKN100=



000
FTUS46 KOTX 232330
TAFCOE
TAF
KCOE 232330Z 2400/2424 25012G20KT P6SM -SHRA OVC020
     FM240200 25010KT P6SM BKN030 BKN100
     FM241000 21004KT 2SM BR OVC010
     FM242000 12004KT P6SM SCT010 OVC020
      AMD LTD TO CLD AND VIS=



000
FTUS46 KOTX 232330
TAFPUW
TAF
KPUW 232330Z 2400/2424 23020G28KT P6SM VCSH BKN025 OVC035
     FM240200 25015G24KT P6SM SCT035 BKN120
     FM240600 25008KT P6SM BKN015
     FM241800 13006KT P6SM SCT020 SCT120=



000
FTUS46 KOTX 232207 AAA
TAFEAT
TAF AMD
KEAT 232207Z 2322/2418 29007G21KT 5SM -SHRA BR BKN030 BKN045 OVC060
     FM240100 31010G24KT P6SM SCT200
     FM241100 32004KT P6SM BKN200=



000
FTUS46 KOTX 232207 AAA
TAFEAT
TAF AMD
KEAT 232207Z 2322/2418 29007G21KT 5SM -SHRA BR BKN030 BKN045 OVC060
     FM240100 31010G24KT P6SM SCT200
     FM241100 32004KT P6SM BKN200=



000
FTUS46 KOTX 232207 AAA
TAFEAT
TAF AMD
KEAT 232207Z 2322/2418 29007G21KT 5SM -SHRA BR BKN030 BKN045 OVC060
     FM240100 31010G24KT P6SM SCT200
     FM241100 32004KT P6SM BKN200=



000
FTUS46 KOTX 232207 AAA
TAFEAT
TAF AMD
KEAT 232207Z 2322/2418 29007G21KT 5SM -SHRA BR BKN030 BKN045 OVC060
     FM240100 31010G24KT P6SM SCT200
     FM241100 32004KT P6SM BKN200=



000
FTUS46 KOTX 232206 AAA
TAFMWH
TAF AMD
KMWH 232206Z 2322/2418 27022G31KT P6SM SCT120
     FM240100 25010KT P6SM FEW200
     FM240900 30004KT P6SM SCT200=



000
FTUS46 KOTX 232206 AAA
TAFMWH
TAF AMD
KMWH 232206Z 2322/2418 27022G31KT P6SM SCT120
     FM240100 25010KT P6SM FEW200
     FM240900 30004KT P6SM SCT200=



000
FTUS46 KOTX 232206 AAA
TAFMWH
TAF AMD
KMWH 232206Z 2322/2418 27022G31KT P6SM SCT120
     FM240100 25010KT P6SM FEW200
     FM240900 30004KT P6SM SCT200=



000
FTUS46 KOTX 232206 AAA
TAFMWH
TAF AMD
KMWH 232206Z 2322/2418 27022G31KT P6SM SCT120
     FM240100 25010KT P6SM FEW200
     FM240900 30004KT P6SM SCT200=



000
FTUS46 KOTX 232011 AAA
TAFSFF
TAF AMD
KSFF 232011Z 2320/2418 23013G17KT P6SM VCSH SCT019 SCT050 OVC060
      TEMPO 2321/2323 -SHRA BKN020 OVC050
     FM240300 24006KT P6SM SCT060
     FM241200 VRB03KT P6SM VCFG OVC006=



000
FTUS46 KOTX 232011 AAA
TAFSFF
TAF AMD
KSFF 232011Z 2320/2418 23013G17KT P6SM VCSH SCT019 SCT050 OVC060
      TEMPO 2321/2323 -SHRA BKN020 OVC050
     FM240300 24006KT P6SM SCT060
     FM241200 VRB03KT P6SM VCFG OVC006=



000
FTUS46 KOTX 232010 AAB
TAFGEG
TAF AMD
KGEG 232010Z 2320/2418 21021G28KT P6SM VCSH FEW014 BKN060 OVC070
      TEMPO 2321/2322 -SHRA BKN015 OVC050
     FM240200 23012KT P6SM SCT060
     FM241100 19005KT P6SM VCFG OVC003=



000
FTUS46 KOTX 232010 AAB
TAFGEG
TAF AMD
KGEG 232010Z 2320/2418 21021G28KT P6SM VCSH FEW014 BKN060 OVC070
      TEMPO 2321/2322 -SHRA BKN015 OVC050
     FM240200 23012KT P6SM SCT060
     FM241100 19005KT P6SM VCFG OVC003=



000
FTUS46 KOTX 231922 AAA
TAFPUW
TAF AMD
KPUW 231922Z 2319/2418 23019G27KT P6SM -SHRA BKN035 OVC045
     FM232200 23020G26KT P6SM VCSH OVC035
     FM240200 23015G24KT P6SM SCT035 BKN120
     FM241200 25005KT P6SM SCT010 SCT250=



000
FTUS46 KOTX 231922 AAA
TAFPUW
TAF AMD
KPUW 231922Z 2319/2418 23019G27KT P6SM -SHRA BKN035 OVC045
     FM232200 23020G26KT P6SM VCSH OVC035
     FM240200 23015G24KT P6SM SCT035 BKN120
     FM241200 25005KT P6SM SCT010 SCT250=



000
FTUS46 KOTX 231921 AAA
TAFGEG
TAF AMD
KGEG 231921Z 2319/2418 21020G26KT P6SM -SHRA BKN010 OVC070
     FM232200 23016G24KT P6SM BKN019 OVC030
     FM240300 23012KT P6SM SCT060
     FM241100 19005KT P6SM VCFG OVC003=



000
FTUS46 KOTX 231921 AAA
TAFGEG
TAF AMD
KGEG 231921Z 2319/2418 21020G26KT P6SM -SHRA BKN010 OVC070
     FM232200 23016G24KT P6SM BKN019 OVC030
     FM240300 23012KT P6SM SCT060
     FM241100 19005KT P6SM VCFG OVC003=



000
FTUS46 KOTX 231734
TAFPUW
TAF
KPUW 231734Z 2318/2418 23014G21KT P6SM -SHRA BKN024 OVC030
     FM232300 23020G26KT P6SM VCSH OVC035
     FM240200 23015G24KT P6SM SCT035 BKN120
     FM241200 25005KT P6SM SCT010 SCT250=



000
FTUS46 KOTX 231734
TAFCOE
TAF
KCOE 231734Z 2318/2418 20007KT P6SM -SHRASN SCT011 BKN022 OVC035
     FM232100 22012G20KT P6SM -SHRA OVC025
     FM240200 25010KT P6SM BKN030 BKN100
     FM241000 21004KT P6SM OVC020
      AMD LTD TO CLD AND VIS=



000
FTUS46 KOTX 231734
TAFEAT
TAF
KEAT 231734Z 2318/2418 VRB03KT P6SM VCSH SCT070 BKN200
     FM232000 30014G20KT P6SM FEW100 SCT200
     FM240100 31010G24KT P6SM FEW200
     FM241100 32004KT P6SM BKN200=



000
FTUS46 KOTX 231734
TAFLWS
TAF
KLWS 231734Z 2318/2418 16004KT P6SM VCSH FEW070 OVC090
     FM232000 22010KT P6SM -SHRA BKN050 OVC100
     FM240200 23013G20KT P6SM BKN040
     FM240500 25010KT P6SM SCT070
     FM241200 VRB03KT P6SM BKN250=



000
FTUS46 KOTX 231734
TAFSFF
TAF
KSFF 231734Z 2318/2418 VRB04KT P6SM VCSH OVC011
     FM231900 22011G16KT P6SM -SHRA BKN015 OVC035
     FM232300 24010G15KT P6SM BKN035 BKN100
     FM240300 24006KT P6SM SCT060
     FM241200 VRB03KT P6SM VCFG OVC006=



000
FTUS46 KOTX 231734
TAFMWH
TAF
KMWH 231734Z 2318/2418 18012KT P6SM FEW080 BKN200
     FM232100 21012G20KT P6SM SCT100 BKN200
     FM240100 25010KT P6SM FEW200
     FM240900 30004KT P6SM SCT200=



000
FTUS46 KOTX 231734
TAFGEG
TAF
KGEG 231734Z 2318/2418 20015G22KT P6SM -SHRA BKN007 OVC012
     FM232300 23016G24KT P6SM BKN019 OVC030
     FM240300 23012KT P6SM SCT060
     FM241100 19005KT P6SM VCFG OVC003=



000
FTUS46 KOTX 231734
TAFGEG
TAF
KGEG 231734Z 2318/2418 20015G22KT P6SM -SHRA BKN007 OVC012
     FM232300 23016G24KT P6SM BKN019 OVC030
     FM240300 23012KT P6SM SCT060
     FM241100 19005KT P6SM VCFG OVC003=



000
FTUS46 KOTX 231734
TAFCOE
TAF
KCOE 231734Z 2318/2418 20007KT P6SM -SHRASN SCT011 BKN022 OVC035
     FM232100 22012G20KT P6SM -SHRA OVC025
     FM240200 25010KT P6SM BKN030 BKN100
     FM241000 21004KT P6SM OVC020
      AMD LTD TO CLD AND VIS=



000
FTUS46 KOTX 231734
TAFLWS
TAF
KLWS 231734Z 2318/2418 16004KT P6SM VCSH FEW070 OVC090
     FM232000 22010KT P6SM -SHRA BKN050 OVC100
     FM240200 23013G20KT P6SM BKN040
     FM240500 25010KT P6SM SCT070
     FM241200 VRB03KT P6SM BKN250=



000
FTUS46 KOTX 231734
TAFEAT
TAF
KEAT 231734Z 2318/2418 VRB03KT P6SM VCSH SCT070 BKN200
     FM232000 30014G20KT P6SM FEW100 SCT200
     FM240100 31010G24KT P6SM FEW200
     FM241100 32004KT P6SM BKN200=



000
FTUS46 KOTX 231734
TAFPUW
TAF
KPUW 231734Z 2318/2418 23014G21KT P6SM -SHRA BKN024 OVC030
     FM232300 23020G26KT P6SM VCSH OVC035
     FM240200 23015G24KT P6SM SCT035 BKN120
     FM241200 25005KT P6SM SCT010 SCT250=



000
FTUS46 KOTX 231734
TAFMWH
TAF
KMWH 231734Z 2318/2418 18012KT P6SM FEW080 BKN200
     FM232100 21012G20KT P6SM SCT100 BKN200
     FM240100 25010KT P6SM FEW200
     FM240900 30004KT P6SM SCT200=



000
FTUS46 KOTX 231734
TAFSFF
TAF
KSFF 231734Z 2318/2418 VRB04KT P6SM VCSH OVC011
     FM231900 22011G16KT P6SM -SHRA BKN015 OVC035
     FM232300 24010G15KT P6SM BKN035 BKN100
     FM240300 24006KT P6SM SCT060
     FM241200 VRB03KT P6SM VCFG OVC006=



000
FTUS46 KOTX 231608 AAA
TAFPUW
TAF AMD
KPUW 231608Z 2316/2412 21011KT P6SM VCSH OVC024
     FM231800 23015G23KT P6SM -RA OVC030
     FM232000 23020G26KT P6SM -SHRA OVC035
     FM240100 23015G24KT P6SM VCSH SCT035 BKN120=



000
FTUS46 KOTX 231608 AAA
TAFPUW
TAF AMD
KPUW 231608Z 2316/2412 21011KT P6SM VCSH OVC024
     FM231800 23015G23KT P6SM -RA OVC030
     FM232000 23020G26KT P6SM -SHRA OVC035
     FM240100 23015G24KT P6SM VCSH SCT035 BKN120=



000
FTUS46 KOTX 231608 AAA
TAFPUW
TAF AMD
KPUW 231608Z 2316/2412 21011KT P6SM VCSH OVC024
     FM231800 23015G23KT P6SM -RA OVC030
     FM232000 23020G26KT P6SM -SHRA OVC035
     FM240100 23015G24KT P6SM VCSH SCT035 BKN120=



000
FTUS46 KOTX 231608 AAA
TAFPUW
TAF AMD
KPUW 231608Z 2316/2412 21011KT P6SM VCSH OVC024
     FM231800 23015G23KT P6SM -RA OVC030
     FM232000 23020G26KT P6SM -SHRA OVC035
     FM240100 23015G24KT P6SM VCSH SCT035 BKN120=



000
FTUS46 KOTX 231607 AAA
TAFCOE
TAF AMD
KCOE 231607Z 2316/2412 VRB03KT P6SM VCSH SCT030 BKN060
     FM231800 22007KT 5SM -SNRA BR SCT012 OVC025
     FM232000 21010KT 5SM -RA BR OVC014
     FM232200 22012G20KT P6SM -SHRA OVC025
     FM240200 25010KT P6SM SCT030
      AMD LTD TO CLD AND VIS=



000
FTUS46 KOTX 231607 AAA
TAFCOE
TAF AMD
KCOE 231607Z 2316/2412 VRB03KT P6SM VCSH SCT030 BKN060
     FM231800 22007KT 5SM -SNRA BR SCT012 OVC025
     FM232000 21010KT 5SM -RA BR OVC014
     FM232200 22012G20KT P6SM -SHRA OVC025
     FM240200 25010KT P6SM SCT030
      AMD LTD TO CLD AND VIS=



000
FTUS46 KOTX 231605 AAB
TAFSFF
TAF AMD
KSFF 231605Z 2316/2412 00000KT P6SM VCSH OVC010
     FM231700 22005KT 6SM -SNRA BR BKN015 OVC022
     FM231900 22011KT P6SM -RA SCT015 OVC025
     FM232100 21013KT P6SM -SHRA BKN028 OVC040
     FM240000 24010KT P6SM BKN035 BKN100
     FM240300 24006KT P6SM SCT060=



000
FTUS46 KOTX 231605 AAB
TAFSFF
TAF AMD
KSFF 231605Z 2316/2412 00000KT P6SM VCSH OVC010
     FM231700 22005KT 6SM -SNRA BR BKN015 OVC022
     FM231900 22011KT P6SM -RA SCT015 OVC025
     FM232100 21013KT P6SM -SHRA BKN028 OVC040
     FM240000 24010KT P6SM BKN035 BKN100
     FM240300 24006KT P6SM SCT060=



000
FTUS46 KOTX 231604 AAB
TAFGEG
TAF AMD
KGEG 231604Z 2316/2412 20012KT P6SM VCSH OVC006
     FM231700 20012KT 5SM -RASN BR BKN008 OVC015
     FM231900 21015G22KT P6SM -RA OVC018
     FM232100 21018G26KT P6SM -SHRA BKN025 OVC040
     FM240000 23016G23KT P6SM BKN035 BKN100
     FM240300 23012KT P6SM SCT060=



000
FTUS46 KOTX 231604 AAB
TAFGEG
TAF AMD
KGEG 231604Z 2316/2412 20012KT P6SM VCSH OVC006
     FM231700 20012KT 5SM -RASN BR BKN008 OVC015
     FM231900 21015G22KT P6SM -RA OVC018
     FM232100 21018G26KT P6SM -SHRA BKN025 OVC040
     FM240000 23016G23KT P6SM BKN035 BKN100
     FM240300 23012KT P6SM SCT060=



000
FTUS46 KOTX 231604 AAB
TAFGEG
TAF AMD
KGEG 231604Z 2316/2412 20012KT P6SM VCSH OVC006
     FM231700 20012KT 5SM -RASN BR BKN008 OVC015
     FM231900 21015G22KT P6SM -RA OVC018
     FM232100 21018G26KT P6SM -SHRA BKN025 OVC040
     FM240000 23016G23KT P6SM BKN035 BKN100
     FM240300 23012KT P6SM SCT060=



000
FTUS46 KOTX 231604 AAB
TAFGEG
TAF AMD
KGEG 231604Z 2316/2412 20012KT P6SM VCSH OVC006
     FM231700 20012KT 5SM -RASN BR BKN008 OVC015
     FM231900 21015G22KT P6SM -RA OVC018
     FM232100 21018G26KT P6SM -SHRA BKN025 OVC040
     FM240000 23016G23KT P6SM BKN035 BKN100
     FM240300 23012KT P6SM SCT060=



000
FTUS46 KOTX 231333 AAA
TAFSFF
TAF AMD
KSFF 231333Z 2314/2412 23003KT P6SM SCT015 BKN200
     FM231700 22008KT 5SM -SNRA BR SCT009 OVC022
     FM231900 22011KT 5SM -RA BR SCT015 OVC025
     FM232100 21013KT P6SM -SHRA BKN028 OVC040
     FM240000 24010KT P6SM BKN035 BKN100
     FM240300 24006KT P6SM SCT060=



000
FTUS46 KOTX 231333 AAA
TAFSFF
TAF AMD
KSFF 231333Z 2314/2412 23003KT P6SM SCT015 BKN200
     FM231700 22008KT 5SM -SNRA BR SCT009 OVC022
     FM231900 22011KT 5SM -RA BR SCT015 OVC025
     FM232100 21013KT P6SM -SHRA BKN028 OVC040
     FM240000 24010KT P6SM BKN035 BKN100
     FM240300 24006KT P6SM SCT060=



000
FTUS46 KOTX 231331 AAA
TAFGEG
TAF AMD
KGEG 231331Z 2314/2412 19011KT P6SM FEW002 BKN250
     FM231500 20012KT 6SM BR BKN004 BKN200
     FM231700 20012KT 2SM -SN BR SCT008 OVC015
     FM231900 21015G22KT 5SM -RASN BR OVC018
     FM232100 21018G26KT P6SM -SHRA BKN025 OVC040
     FM240000 23016G23KT P6SM BKN035 BKN100
     FM240300 23012KT P6SM SCT060=



000
FTUS46 KOTX 231331 AAA
TAFGEG
TAF AMD
KGEG 231331Z 2314/2412 19011KT P6SM FEW002 BKN250
     FM231500 20012KT 6SM BR BKN004 BKN200
     FM231700 20012KT 2SM -SN BR SCT008 OVC015
     FM231900 21015G22KT 5SM -RASN BR OVC018
     FM232100 21018G26KT P6SM -SHRA BKN025 OVC040
     FM240000 23016G23KT P6SM BKN035 BKN100
     FM240300 23012KT P6SM SCT060=



000
FTUS46 KOTX 231146 AAA
TAFLWS
TAF AMD
KLWS 231146Z 2312/2412 18008KT P6SM SCT070 BKN200
     FM232000 22010KT P6SM -RA SCT050 BKN070 OVC100
     FM232130 22012KT P6SM -RA SCT030 OVC040
     FM240200 23013G20KT P6SM BKN040
     FM240500 25010KT P6SM SCT070=



000
FTUS46 KOTX 231146 AAA
TAFLWS
TAF AMD
KLWS 231146Z 2312/2412 18008KT P6SM SCT070 BKN200
     FM232000 22010KT P6SM -RA SCT050 BKN070 OVC100
     FM232130 22012KT P6SM -RA SCT030 OVC040
     FM240200 23013G20KT P6SM BKN040
     FM240500 25010KT P6SM SCT070=



000
FTUS46 KOTX 231139
TAFEAT
TAF
KEAT 231139Z 2312/2412 09005KT P6SM BKN200
     FM231400 19005KT P6SM SCT040 OVC060
     FM231700 VRB04KT P6SM VCSH BKN060 OVC100
     FM232000 30014G24KT P6SM FEW100
     FM240100 31010KT P6SM FEW200=



000
FTUS46 KOTX 231139
TAFMWH
TAF
KMWH 231139Z 2312/2412 19006KT P6SM BKN200
     FM231600 20013KT P6SM SCT060 OVC100
     FM232100 21012G20KT P6SM SCT100 BKN200
     FM240100 25010KT P6SM FEW200=



000
FTUS46 KOTX 231139
TAFSFF
TAF
KSFF 231139Z 2312/2412 23003KT 5SM BR FEW002 SCT008 BKN250
     FM231400 22004KT 6SM BR BKN008 BKN200
     FM231700 22008KT 5SM -SNRA BR SCT009 OVC022
     FM231900 22011KT 5SM -RA BR SCT015 OVC025
     FM232100 21013KT P6SM -SHRA BKN028 OVC040
     FM240000 24010KT P6SM BKN035 BKN100
     FM240300 24006KT P6SM SCT060=



000
FTUS46 KOTX 231139
TAFPUW
TAF
KPUW 231139Z 2312/2412 25010KT P6SM BKN200
     FM231500 23009KT P6SM BKN035 BKN200
     FM231800 23015G23KT 6SM -SNRA OVC030
     FM232000 23020G26KT 6SM -RA BR OVC025
     FM240100 23015G24KT P6SM VCSH SCT035 BKN120=



000
FTUS46 KOTX 231139
TAFGEG
TAF
KGEG 231139Z 2312/2412 22013KT P6SM FEW002 BKN250
     FM231330 21012KT 5SM BR BKN003 BKN200
     FM231700 20012KT 2SM -SN BR SCT008 OVC015
     FM231900 21015G22KT 5SM -RASN BR OVC018
     FM232100 21018G26KT P6SM -SHRA BKN025 OVC040
     FM240000 23016G23KT P6SM BKN035 BKN100
     FM240300 23012KT P6SM SCT060=



000
FTUS46 KOTX 231139
TAFCOE
TAF
KCOE 231139Z 2312/2412 21004KT P6SM SCT010 SCT025
     FM231330 22005KT P6SM BKN015 BKN200
     FM231700 22008KT 4SM -SN BR OVC018
     FM231800 22007KT 2SM -SN BR SCT008 OVC012
     FM232000 21010KT 5SM -RA BR OVC014
     FM232200 22012G20KT P6SM -SHRA OVC025
     FM240200 25010KT P6SM SCT030
      AMD LTD TO CLD AND VIS=



000
FTUS46 KOTX 231139
TAFLWS
TAF
KLWS 231139Z 2312/2412 18008KT P6SM BKN200
     FM231300 20003KT P6SM SCT080 BKN100 OVC150
     FM231800 19006KT P6SM -RA SCT025 BKN040 OVC060
     FM232100 22010KT P6SM -RA SCT025 OVC040
     FM240200 23010KT P6SM VCSH FEW030 BKN120=



000
FTUS46 KOTX 231139
TAFSFF
TAF
KSFF 231139Z 2312/2412 23003KT 5SM BR FEW002 SCT008 BKN250
     FM231400 22004KT 6SM BR BKN008 BKN200
     FM231700 22008KT 5SM -SNRA BR SCT009 OVC022
     FM231900 22011KT 5SM -RA BR SCT015 OVC025
     FM232100 21013KT P6SM -SHRA BKN028 OVC040
     FM240000 24010KT P6SM BKN035 BKN100
     FM240300 24006KT P6SM SCT060=



000
FTUS46 KOTX 231139
TAFGEG
TAF
KGEG 231139Z 2312/2412 22013KT P6SM FEW002 BKN250
     FM231330 21012KT 5SM BR BKN003 BKN200
     FM231700 20012KT 2SM -SN BR SCT008 OVC015
     FM231900 21015G22KT 5SM -RASN BR OVC018
     FM232100 21018G26KT P6SM -SHRA BKN025 OVC040
     FM240000 23016G23KT P6SM BKN035 BKN100
     FM240300 23012KT P6SM SCT060=



000
FTUS46 KOTX 231139
TAFCOE
TAF
KCOE 231139Z 2312/2412 21004KT P6SM SCT010 SCT025
     FM231330 22005KT P6SM BKN015 BKN200
     FM231700 22008KT 4SM -SN BR OVC018
     FM231800 22007KT 2SM -SN BR SCT008 OVC012
     FM232000 21010KT 5SM -RA BR OVC014
     FM232200 22012G20KT P6SM -SHRA OVC025
     FM240200 25010KT P6SM SCT030
      AMD LTD TO CLD AND VIS=



000
FTUS46 KOTX 231139
TAFEAT
TAF
KEAT 231139Z 2312/2412 09005KT P6SM BKN200
     FM231400 19005KT P6SM SCT040 OVC060
     FM231700 VRB04KT P6SM VCSH BKN060 OVC100
     FM232000 30014G24KT P6SM FEW100
     FM240100 31010KT P6SM FEW200=



000
FTUS46 KOTX 231139
TAFLWS
TAF
KLWS 231139Z 2312/2412 18008KT P6SM BKN200
     FM231300 20003KT P6SM SCT080 BKN100 OVC150
     FM231800 19006KT P6SM -RA SCT025 BKN040 OVC060
     FM232100 22010KT P6SM -RA SCT025 OVC040
     FM240200 23010KT P6SM VCSH FEW030 BKN120=



000
FTUS46 KOTX 231139
TAFMWH
TAF
KMWH 231139Z 2312/2412 19006KT P6SM BKN200
     FM231600 20013KT P6SM SCT060 OVC100
     FM232100 21012G20KT P6SM SCT100 BKN200
     FM240100 25010KT P6SM FEW200=



000
FTUS46 KOTX 231139
TAFPUW
TAF
KPUW 231139Z 2312/2412 25010KT P6SM BKN200
     FM231500 23009KT P6SM BKN035 BKN200
     FM231800 23015G23KT 6SM -SNRA OVC030
     FM232000 23020G26KT 6SM -RA BR OVC025
     FM240100 23015G24KT P6SM VCSH SCT035 BKN120=



000
FTUS46 KOTX 230702 AAA
TAFSFF
TAF AMD
KSFF 230702Z 2307/2406 VRB04KT 3SM BR FEW010
     FM230900 24005KT 3SM BR BKN010
     FM231500 20004KT 3SM -SN BKN016 OVC060
     FM231700 21008KT 5SM -SNRA BKN020 OVC040
     FM231900 22013KT P6SM -RA BKN020 OVC045
     FM240200 24005KT P6SM SCT030 BKN090=



000
FTUS46 KOTX 230702 AAA
TAFSFF
TAF AMD
KSFF 230702Z 2307/2406 VRB04KT 3SM BR FEW010
     FM230900 24005KT 3SM BR BKN010
     FM231500 20004KT 3SM -SN BKN016 OVC060
     FM231700 21008KT 5SM -SNRA BKN020 OVC040
     FM231900 22013KT P6SM -RA BKN020 OVC045
     FM240200 24005KT P6SM SCT030 BKN090=



    US Dept of Commerce
    National Oceanic and Atmospheric Administration
    National Weather Service
    1325 East West Highway
    Silver Spring, MD 20910
    Page Author: NWS Internet Services Team
Disclaimer
Information Quality
Credits
Glossary
Privacy Policy
Freedom of Information Act (FOIA)
About Us
Career Opportunities